Terminal Aerodrome Forecast
Issued by NWS

Home | Current Version | Previous Version | Graphics & Text | Print | Product List | Glossary On
Versions: 1 2 3 4 5 6 7 8 9 10 11 12
000
FTUS43 KDVN 280520
TAFCID
TAF
KCID 280520Z 2806/2906 12004KT P6SM BKN150
     FM281400 14007KT P6SM VCSH BKN070
     FM281700 14012KT 5SM -RA BR SCT025 OVC040
     FM282200 13009KT 3SM -RA BR OVC025=

USA.gov is the U.S. government's official web portal to all federal, state and local government web resources and services.